createdAt,value
2018-07-11T00:01:46.251Z,51.00
2018-07-11T00:04:15.527Z,51.90
2018-07-11T00:06:44.701Z,51.00
2018-07-11T00:09:14.489Z,50.40
2018-07-11T00:11:43.806Z,51.10
2018-07-11T00:14:13.279Z,48.90
2018-07-11T00:16:47.852Z,49.40
2018-07-11T00:19:17.060Z,49.60
2018-07-11T00:21:46.640Z,49.80
2018-07-11T00:24:15.879Z,48.90
2018-07-11T00:26:45.342Z,47.60
2018-07-11T00:29:14.603Z,47.90
2018-07-11T00:31:44.692Z,48.30
2018-07-11T00:34:13.954Z,47.90
2018-07-11T00:36:43.285Z,46.80
2018-07-11T00:39:12.606Z,47.10
2018-07-11T00:41:42.012Z,47.70
2018-07-11T00:44:11.277Z,47.50
2018-07-11T00:46:40.870Z,48.20
2018-07-11T00:49:10.067Z,49.30
2018-07-11T00:51:39.549Z,49.70
2018-07-11T00:54:09.906Z,51.10
2018-07-11T00:56:40.268Z,51.50
2018-07-11T00:59:11.991Z,51.30
2018-07-11T01:01:43.010Z,49.40
2018-07-11T01:04:18.336Z,50.40
2018-07-11T01:06:47.804Z,50.40
2018-07-11T01:09:17.113Z,50.30
2018-07-11T01:11:46.522Z,51.30
2018-07-11T01:14:16.265Z,50.30
2018-07-11T01:16:45.522Z,50.20
2018-07-11T01:19:17.744Z,50.70
2018-07-11T01:21:52.839Z,50.20
2018-07-11T01:24:22.040Z,50.60
2018-07-11T01:26:51.413Z,51.40
2018-07-11T01:29:20.587Z,51.40
2018-07-11T01:31:50.908Z,50.20
2018-07-11T01:34:21.250Z,50.00
2018-07-11T01:36:51.365Z,50.60
2018-07-11T01:39:20.692Z,50.10
2018-07-11T01:41:54.840Z,50.50
2018-07-11T01:44:24.523Z,49.00
2018-07-11T01:46:53.892Z,48.30
2018-07-11T01:49:23.535Z,48.00
2018-07-11T01:52:03.898Z,47.00
2018-07-11T01:54:33.148Z,48.40
2018-07-11T01:57:02.411Z,47.00
2018-07-11T01:59:35.226Z,47.40
2018-07-11T02:02:05.369Z,46.50
2018-07-11T02:04:36.064Z,46.80
2018-07-11T02:07:05.401Z,45.00
2018-07-11T02:09:34.931Z,45.80
2018-07-11T02:12:04.807Z,44.30
2018-07-11T02:14:35.089Z,43.90
2018-07-11T02:17:04.849Z,45.80
2018-07-11T02:19:36.735Z,44.10
2018-07-11T02:22:06.157Z,44.70
2018-07-11T02:24:35.351Z,44.30
2018-07-11T02:27:04.646Z,44.10
2018-07-11T02:29:33.925Z,43.30
2018-07-11T02:32:07.236Z,43.70
2018-07-11T02:34:44.662Z,43.70
2018-07-11T02:37:13.925Z,44.00
2018-07-11T02:42:54.883Z,44.40
2018-07-11T02:45:25.131Z,43.30
2018-07-11T02:48:06.796Z,43.90
2018-07-11T02:50:50.245Z,43.70
2018-07-11T02:53:23.296Z,43.90
2018-07-11T02:55:53.862Z,44.20
2018-07-11T02:58:23.184Z,43.80
2018-07-11T03:00:52.550Z,44.00
2018-07-11T03:03:22.069Z,45.10
2018-07-11T03:05:52.169Z,44.90
2018-07-11T03:08:21.458Z,45.20
2018-07-11T03:10:51.609Z,44.40
2018-07-11T03:13:22.158Z,44.50
2018-07-11T03:15:52.665Z,44.70
2018-07-11T03:18:22.599Z,44.60
2018-07-11T03:20:52.483Z,44.60
2018-07-11T03:23:21.845Z,43.80
2018-07-11T03:25:51.384Z,43.80
2018-07-11T03:28:20.816Z,44.10
2018-07-11T03:30:50.265Z,44.50
2018-07-11T03:33:19.971Z,45.20
2018-07-11T03:35:50.792Z,44.20
2018-07-11T03:38:20.724Z,45.20
2018-07-11T03:40:58.682Z,45.40
2018-07-11T03:43:27.910Z,45.10
2018-07-11T03:45:58.194Z,46.60
2018-07-11T03:48:28.278Z,45.70
2018-07-11T03:50:57.851Z,46.80
2018-07-11T03:53:27.235Z,47.50
2018-07-11T03:55:57.110Z,46.00
2018-07-11T03:58:27.241Z,47.50
2018-07-11T04:00:58.277Z,47.50
2018-07-11T04:03:27.622Z,47.60
2018-07-11T04:05:58.835Z,47.30
2018-07-11T04:08:29.026Z,45.80
2018-07-11T04:11:00.078Z,46.90
2018-07-11T04:13:30.254Z,47.60
2018-07-11T04:16:00.222Z,47.10
2018-07-11T04:18:30.417Z,46.70
2018-07-11T04:21:01.872Z,47.10
2018-07-11T04:23:31.646Z,47.20
2018-07-11T04:26:01.985Z,47.20
2018-07-11T04:28:31.234Z,47.20
2018-07-11T04:31:01.920Z,47.70
2018-07-11T04:33:31.626Z,48.40
2018-07-11T04:36:00.872Z,48.80
2018-07-11T04:38:30.867Z,47.90
2018-07-11T04:43:28.958Z,47.90
2018-07-11T04:45:59.635Z,46.70
2018-07-11T04:48:29.858Z,47.10
2018-07-11T04:51:00.447Z,47.10
2018-07-11T04:53:29.711Z,48.10
2018-07-11T04:56:03.374Z,48.10
2018-07-11T04:58:33.162Z,46.50
2018-07-11T05:01:02.873Z,46.60
2018-07-11T05:03:32.115Z,47.10
2018-07-11T05:06:01.416Z,45.40
2018-07-11T05:08:30.919Z,46.10
2018-07-11T05:11:00.259Z,47.00
2018-07-11T05:13:30.379Z,45.50
2018-07-11T05:16:00.403Z,46.20
2018-07-11T05:18:30.312Z,46.50
2018-07-11T05:20:59.624Z,45.00
2018-07-11T05:23:29.144Z,45.00
2018-07-11T05:25:59.240Z,45.30
2018-07-11T05:28:28.995Z,44.70
2018-07-11T05:30:58.636Z,43.80
2018-07-11T05:33:28.350Z,43.80
2018-07-11T05:35:57.542Z,44.50
2018-07-11T05:38:31.239Z,43.30
2018-07-11T05:41:01.252Z,44.30
2018-07-11T05:43:33.296Z,45.20
2018-07-11T05:46:02.825Z,44.90
2018-07-11T05:48:32.493Z,44.70
2018-07-11T05:51:02.218Z,44.50
2018-07-11T05:53:31.548Z,44.10
2018-07-11T05:56:00.766Z,43.40
2018-07-11T05:58:33.713Z,44.80
2018-07-11T06:01:05.552Z,45.10
2018-07-11T06:03:34.741Z,45.40
2018-07-11T06:06:04.032Z,44.80
2018-07-11T06:11:03.602Z,46.00
2018-07-11T06:13:33.008Z,46.20
2018-07-11T06:16:02.275Z,44.30
2018-07-11T06:18:31.490Z,44.50
2018-07-11T06:21:02.465Z,44.30
2018-07-11T06:23:35.885Z,44.40
2018-07-11T06:26:06.951Z,44.20
2018-07-11T06:28:37.751Z,43.80
2018-07-11T06:31:08.558Z,43.90
2018-07-11T06:33:37.849Z,42.50
2018-07-11T06:36:07.466Z,41.70
2018-07-11T06:38:38.972Z,43.40
2018-07-11T06:41:08.420Z,43.40
2018-07-11T06:43:37.879Z,43.80
2018-07-11T06:46:07.998Z,42.90
2018-07-11T06:48:39.506Z,43.80
2018-07-11T06:51:11.610Z,43.00
2018-07-11T06:53:41.161Z,41.50
2018-07-11T06:56:10.385Z,41.50
2018-07-11T06:58:42.941Z,39.70
2018-07-11T07:01:16.899Z,40.40
2018-07-11T07:03:47.367Z,39.90
2018-07-11T07:06:16.630Z,40.60
2018-07-11T07:08:45.967Z,40.60
2018-07-11T07:11:16.379Z,39.30
2018-07-11T07:13:46.545Z,38.60
2018-07-11T07:16:15.980Z,37.70
2018-07-11T07:18:45.400Z,36.90
2018-07-11T07:21:18.605Z,37.80
2018-07-11T07:23:47.860Z,37.60
2018-07-11T07:26:17.140Z,37.80
2018-07-11T07:28:46.535Z,37.40
2018-07-11T07:31:15.970Z,37.50
2018-07-11T07:33:45.210Z,37.70
2018-07-11T07:36:15.054Z,35.70
2018-07-11T07:38:45.441Z,35.20
2018-07-11T07:41:14.863Z,36.50
2018-07-11T07:43:44.658Z,37.30
2018-07-11T07:46:14.250Z,37.40
2018-07-11T07:48:43.600Z,36.90
2018-07-11T07:51:13.033Z,35.40
2018-07-11T07:53:42.402Z,32.40
2018-07-11T07:56:13.663Z,31.40
2018-07-11T07:58:43.028Z,29.90
2018-07-11T08:01:13.218Z,30.60
2018-07-11T08:03:42.466Z,30.10
2018-07-11T08:06:12.260Z,28.90
2018-07-11T08:08:43.226Z,29.00
2018-07-11T08:11:13.767Z,29.00
2018-07-11T08:13:43.117Z,29.40
2018-07-11T08:16:12.326Z,29.00
2018-07-11T08:18:41.569Z,29.30
2018-07-11T08:21:10.966Z,28.50
2018-07-11T08:23:51.256Z,28.50
2018-07-11T08:26:31.581Z,28.50
2018-07-11T08:32:18.679Z,29.40
2018-07-11T08:34:59.762Z,28.90
2018-07-11T08:39:48.095Z,28.20
2018-07-11T08:42:30.376Z,25.90
2018-07-11T08:47:16.202Z,24.60
2018-07-11T08:50:56.284Z,26.50
2018-07-11T08:53:50.250Z,26.10
2018-07-11T08:57:33.779Z,26.10
2018-07-11T09:00:29.203Z,26.00
2018-07-11T09:03:13.007Z,26.10
2018-07-11T09:07:55.876Z,25.90
2018-07-11T09:10:40.031Z,25.40
2018-07-11T09:15:27.140Z,25.30
2018-07-11T09:18:10.779Z,23.10
2018-07-11T09:20:50.138Z,23.70
2018-07-11T09:24:32.927Z,23.40
2018-07-11T09:27:02.138Z,24.10
2018-07-11T09:32:00.602Z,22.70
2018-07-11T09:34:29.829Z,22.90
2018-07-11T09:36:59.292Z,22.70
2018-07-11T09:39:28.536Z,22.70
2018-07-11T09:41:57.818Z,22.40
2018-07-11T09:44:27.117Z,22.80
2018-07-11T09:46:56.831Z,22.30
2018-07-11T09:49:27.294Z,22.00
2018-07-11T09:51:56.933Z,22.00
2018-07-11T09:54:26.169Z,22.20
2018-07-11T09:56:55.452Z,20.50
2018-07-11T09:59:25.155Z,22.00
2018-07-11T10:01:54.952Z,21.00
2018-07-11T10:04:27.407Z,22.10
2018-07-11T10:06:57.242Z,21.80
2018-07-11T10:09:31.465Z,21.30
2018-07-11T10:12:01.647Z,21.10
2018-07-11T10:14:33.805Z,19.80
2018-07-11T10:17:03.685Z,19.60
2018-07-11T10:19:33.830Z,20.40
2018-07-11T10:22:03.304Z,21.40
2018-07-11T10:24:32.545Z,21.60
2018-07-11T10:27:02.117Z,22.20
2018-07-11T10:29:31.835Z,22.20
2018-07-11T10:32:01.915Z,21.80
2018-07-11T10:34:31.098Z,20.90
2018-07-11T10:37:01.407Z,20.30
2018-07-11T10:39:30.689Z,19.40
2018-07-11T10:42:03.210Z,19.40
2018-07-11T10:44:33.402Z,19.70
2018-07-11T10:47:13.320Z,19.00
2018-07-11T10:49:44.424Z,19.30
2018-07-11T10:52:14.260Z,19.30
2018-07-11T10:54:43.479Z,20.20
2018-07-11T10:57:13.307Z,20.40
2018-07-11T10:59:42.588Z,20.40
2018-07-11T11:02:18.142Z,20.30
2018-07-11T11:04:48.367Z,20.50
2018-07-11T11:07:18.581Z,20.40
2018-07-11T11:09:47.827Z,19.80
2018-07-11T11:12:18.486Z,21.60
2018-07-11T11:14:47.793Z,20.00
2018-07-11T11:17:19.982Z,21.30
2018-07-11T11:19:49.686Z,21.60
2018-07-11T11:22:18.967Z,22.40
2018-07-11T11:24:48.509Z,22.20
2018-07-11T11:27:18.353Z,21.60
2018-07-11T11:29:52.287Z,22.30
2018-07-11T11:32:26.717Z,22.50
2018-07-11T11:34:55.979Z,24.10
2018-07-11T11:37:25.253Z,23.90
2018-07-11T11:39:54.652Z,24.20
2018-07-11T11:42:28.223Z,23.90
2018-07-11T11:44:59.318Z,24.50
2018-07-11T11:47:28.976Z,24.30
2018-07-11T11:49:58.691Z,24.30
2018-07-11T11:52:29.879Z,24.10
2018-07-11T11:54:59.825Z,24.90
2018-07-11T11:57:29.593Z,23.40
2018-07-11T12:00:01.005Z,22.80
2018-07-11T12:02:32.424Z,22.50
2018-07-11T12:05:09.949Z,21.90
2018-07-11T12:07:41.704Z,21.10
2018-07-11T12:10:11.076Z,22.70
2018-07-11T12:12:40.437Z,22.10
2018-07-11T12:15:11.663Z,21.30
2018-07-11T12:17:41.200Z,21.30
2018-07-11T12:20:18.423Z,21.70
2018-07-11T12:22:48.337Z,21.40
2018-07-11T12:25:23.847Z,21.60
2018-07-11T12:27:54.817Z,23.30
2018-07-11T12:30:28.216Z,23.00
2018-07-11T12:32:58.502Z,23.90
2018-07-11T12:35:29.736Z,24.50
2018-07-11T12:38:02.810Z,24.20
2018-07-11T12:40:33.172Z,24.40
2018-07-11T12:43:02.605Z,25.90
2018-07-11T12:45:32.240Z,25.00
2018-07-11T12:48:09.365Z,25.30
2018-07-11T12:50:39.850Z,25.40
2018-07-11T12:53:09.824Z,25.10
2018-07-11T12:55:39.129Z,25.70
2018-07-11T12:58:09.593Z,24.10
2018-07-11T13:00:39.196Z,23.60
2018-07-11T13:03:08.546Z,22.60
2018-07-11T13:05:37.790Z,22.40
2018-07-11T13:08:08.959Z,22.80
2018-07-11T13:10:38.855Z,21.90
2018-07-11T13:13:08.109Z,21.90
2018-07-11T13:15:38.114Z,21.10
2018-07-11T13:18:07.426Z,21.70
2018-07-11T13:20:36.837Z,21.00
2018-07-11T13:23:06.326Z,20.50
2018-07-11T13:25:37.115Z,20.60
2018-07-11T13:28:06.380Z,19.30
2018-07-11T13:30:36.708Z,20.00
2018-07-11T13:33:12.686Z,18.90
2018-07-11T13:35:43.485Z,19.00
2018-07-11T13:38:14.284Z,18.80
2018-07-11T13:40:44.679Z,17.90
2018-07-11T13:43:15.308Z,17.20
2018-07-11T13:45:46.669Z,16.00
2018-07-11T13:48:18.652Z,15.50
2018-07-11T13:50:51.208Z,15.30
2018-07-11T13:53:20.612Z,15.60
2018-07-11T13:55:58.796Z,17.00
2018-07-11T13:58:31.271Z,17.60
2018-07-11T14:01:02.257Z,18.40
2018-07-11T14:03:32.489Z,17.70
2018-07-11T14:06:09.179Z,18.00
2018-07-11T14:08:42.600Z,17.50
2018-07-11T14:11:12.375Z,18.00
2018-07-11T14:13:43.533Z,18.40
2018-07-11T14:16:13.556Z,17.80
2018-07-11T14:18:43.290Z,16.10
2018-07-11T14:23:48.970Z,15.40
2018-07-11T14:26:22.510Z,15.50
2018-07-11T14:28:53.990Z,13.90
2018-07-11T14:31:39.041Z,12.40
2018-07-11T14:34:09.692Z,11.40
2018-07-11T14:36:40.931Z,9.60
2018-07-11T14:39:10.454Z,11.00
2018-07-11T14:41:39.994Z,10.50
2018-07-11T14:44:09.667Z,9.60
2018-07-11T14:46:38.958Z,10.70
2018-07-11T14:49:09.294Z,11.00
2018-07-11T14:51:39.995Z,11.10
2018-07-11T14:54:11.037Z,12.50
2018-07-11T14:56:41.809Z,12.00
2018-07-11T14:59:14.377Z,12.50
2018-07-11T15:01:43.774Z,13.00
2018-07-11T15:04:14.910Z,11.40
2018-07-11T15:06:45.638Z,11.70
2018-07-11T15:09:20.920Z,11.20
2018-07-11T15:11:53.172Z,11.40
2018-07-11T15:14:25.028Z,12.00
2018-07-11T15:16:56.305Z,12.00
2018-07-11T15:19:25.910Z,12.60
2018-07-11T15:21:55.364Z,11.70
2018-07-11T15:24:26.647Z,11.40
2018-07-11T15:27:01.247Z,11.20
2018-07-11T15:29:32.208Z,7.10
2018-07-11T15:32:05.181Z,5.00
2018-07-11T15:34:34.569Z,3.90
2018-07-11T15:37:04.070Z,3.00
2018-07-11T15:39:35.406Z,1.70
2018-07-11T15:42:07.124Z,1.00
2018-07-11T15:44:36.525Z,1.00
2018-07-11T15:47:10.113Z,1.00
2018-07-11T15:49:46.983Z,1.00
2018-07-11T15:52:18.600Z,1.00
2018-07-11T15:54:49.861Z,1.00
2018-07-11T15:57:28.867Z,1.00
2018-07-11T16:00:11.698Z,1.00
2018-07-11T16:02:45.976Z,1.00
2018-07-11T16:05:23.197Z,1.00
2018-07-11T16:07:58.595Z,1.40
2018-07-11T16:13:02.177Z,1.00
2018-07-11T16:15:31.568Z,1.00
2018-07-11T16:18:00.882Z,2.40
2018-07-11T16:20:31.357Z,2.30
2018-07-11T16:23:01.299Z,2.70
2018-07-11T16:25:30.716Z,3.90
2018-07-11T16:28:00.394Z,3.60
2018-07-11T16:30:30.884Z,2.40
2018-07-11T16:33:01.945Z,1.10
2018-07-11T16:35:31.273Z,2.10
2018-07-11T16:38:01.321Z,2.60
2018-07-11T16:40:32.759Z,1.80
2018-07-11T16:43:02.832Z,1.20
2018-07-11T16:45:33.429Z,1.00
2018-07-11T16:48:02.929Z,1.00
2018-07-11T16:50:32.412Z,1.00
2018-07-11T16:53:01.777Z,1.00
2018-07-11T16:55:35.356Z,1.50
2018-07-11T16:58:05.025Z,3.30
2018-07-11T17:00:36.131Z,4.80
2018-07-11T17:03:09.250Z,6.50
2018-07-11T17:06:19.029Z,8.30
2018-07-11T17:08:52.146Z,9.10
2018-07-11T17:11:24.527Z,10.90
2018-07-11T17:13:59.119Z,10.60
2018-07-11T17:16:37.680Z,10.50
2018-07-11T17:19:11.022Z,12.10
2018-07-11T17:21:47.943Z,11.90
2018-07-11T17:24:19.074Z,11.70
2018-07-11T17:29:26.016Z,12.70
2018-07-11T17:32:05.081Z,12.80
2018-07-11T17:34:36.685Z,13.10
2018-07-11T17:37:07.660Z,11.40
2018-07-11T17:39:49.076Z,9.70
2018-07-11T17:42:22.596Z,8.50
2018-07-11T17:45:16.621Z,7.50
2018-07-11T17:49:58.008Z,8.70
2018-07-11T17:52:28.976Z,9.40
2018-07-11T17:55:10.910Z,10.00
2018-07-11T17:57:52.539Z,11.00
2018-07-11T18:00:34.328Z,11.10
2018-07-11T18:03:39.073Z,11.80
2018-07-11T18:06:22.370Z,12.30
2018-07-11T18:08:58.627Z,12.30
2018-07-11T18:11:35.143Z,13.00
2018-07-11T18:14:04.755Z,13.70
2018-07-11T18:16:43.698Z,14.40
2018-07-11T18:19:24.529Z,15.30
2018-07-11T18:22:10.842Z,15.40
2018-07-11T18:26:56.935Z,15.00
2018-07-11T18:29:43.534Z,15.30
2018-07-11T18:32:53.824Z,15.70
2018-07-11T18:36:36.636Z,15.80
2018-07-11T18:39:17.433Z,16.90
2018-07-11T18:44:00.398Z,17.80
2018-07-11T18:46:50.268Z,17.60
2018-07-11T18:51:36.222Z,18.00
2018-07-11T18:54:13.595Z,18.80
2018-07-11T18:57:00.427Z,19.70
2018-07-11T18:59:46.383Z,20.00
2018-07-11T19:03:33.065Z,21.20
2018-07-11T19:07:15.024Z,20.90
2018-07-11T19:09:49.836Z,22.90
2018-07-11T19:12:36.081Z,23.60
2018-07-11T19:15:09.907Z,24.20
2018-07-11T19:17:56.605Z,24.50
2018-07-11T19:21:06.736Z,25.40
2018-07-11T19:23:46.238Z,26.00
2018-07-11T19:27:32.165Z,27.50
2018-07-11T19:30:13.340Z,27.40
2018-07-11T19:32:58.547Z,28.60
2018-07-11T19:37:46.341Z,29.60
2018-07-11T19:40:29.157Z,30.10
2018-07-11T19:43:11.256Z,31.10
2018-07-11T19:45:55.205Z,31.80
2018-07-11T19:48:36.026Z,32.80
2018-07-11T19:51:14.626Z,33.70
2018-07-11T19:56:00.728Z,34.00
2018-07-11T19:58:31.332Z,34.70
2018-07-11T20:01:01.305Z,37.20
2018-07-11T20:03:30.886Z,38.40
2018-07-11T20:06:00.829Z,38.90
2018-07-11T20:08:32.724Z,40.80
2018-07-11T20:11:02.491Z,41.70
2018-07-11T20:13:31.898Z,41.60
2018-07-11T20:16:01.959Z,42.40
2018-07-11T20:18:32.316Z,41.50
2018-07-11T20:21:01.853Z,42.30
2018-07-11T20:26:01.861Z,41.40
2018-07-11T20:28:37.490Z,41.00
2018-07-11T20:31:07.161Z,41.00
2018-07-11T20:33:38.427Z,39.30
2018-07-11T20:36:12.071Z,40.30
2018-07-11T20:38:43.412Z,40.90
2018-07-11T20:41:14.548Z,40.90
2018-07-11T20:43:43.893Z,42.40
2018-07-11T20:46:13.235Z,41.50
2018-07-11T20:48:44.692Z,41.10
2018-07-11T20:51:14.468Z,40.00
2018-07-11T20:53:44.387Z,39.70
2018-07-11T20:56:14.680Z,40.30
2018-07-11T20:58:55.666Z,41.70
2018-07-11T21:01:36.540Z,42.00
2018-07-11T21:06:38.188Z,40.20
2018-07-11T21:10:19.813Z,42.10
2018-07-11T21:15:42.984Z,42.70
2018-07-11T21:19:15.264Z,42.50
2018-07-11T21:21:45.078Z,41.80
2018-07-11T21:24:15.245Z,41.40
2018-07-11T21:26:50.880Z,41.80
2018-07-11T21:29:21.033Z,41.00
2018-07-11T21:31:50.943Z,41.70
2018-07-11T21:34:21.039Z,43.00
2018-07-11T21:36:50.966Z,42.10
2018-07-11T21:39:20.171Z,42.10
2018-07-11T21:41:49.451Z,42.00
2018-07-11T21:44:18.796Z,42.40
2018-07-11T21:46:48.725Z,43.20
2018-07-11T21:49:23.236Z,42.90
2018-07-11T21:51:52.938Z,41.50
2018-07-11T21:54:24.005Z,42.90
2018-07-11T21:56:53.237Z,42.70
2018-07-11T21:59:24.190Z,43.40
2018-07-11T22:01:53.506Z,44.00
2018-07-11T22:04:26.756Z,45.60
2018-07-11T22:06:56.613Z,46.80
2018-07-11T22:09:28.820Z,47.00
2018-07-11T22:11:58.486Z,47.50
2018-07-11T22:14:27.764Z,47.50
2018-07-11T22:16:57.826Z,48.10
2018-07-11T22:19:34.784Z,47.70
2018-07-11T22:22:02.763Z,48.00
2018-07-11T22:24:30.822Z,48.10
2018-07-11T22:26:58.800Z,47.50
2018-07-11T22:29:27.399Z,47.90
2018-07-11T22:31:55.887Z,48.40
2018-07-11T22:34:23.855Z,49.30
2018-07-11T22:36:51.937Z,49.40
2018-07-11T22:41:48.411Z,50.00
2018-07-11T22:44:16.393Z,49.30
2018-07-11T22:46:44.628Z,49.00
2018-07-11T22:49:12.625Z,49.30
2018-07-11T22:51:40.864Z,48.30
2018-07-11T22:54:08.832Z,50.00
2018-07-11T22:56:36.787Z,50.30
2018-07-11T22:59:05.134Z,51.90
2018-07-11T23:01:34.226Z,52.30
2018-07-11T23:04:02.191Z,52.30
2018-07-11T23:06:30.187Z,52.30
2018-07-11T23:08:58.155Z,52.20
2018-07-11T23:11:26.261Z,53.50
2018-07-11T23:13:54.225Z,55.30
2018-07-11T23:16:22.230Z,55.90
2018-07-11T23:18:50.487Z,55.30
2018-07-11T23:21:18.815Z,55.30
2018-07-11T23:23:47.207Z,55.80
2018-07-11T23:26:15.158Z,55.60
2018-07-11T23:28:43.439Z,57.10
2018-07-11T23:31:11.414Z,57.00
2018-07-11T23:33:39.394Z,56.10
2018-07-11T23:36:07.384Z,55.50
2018-07-11T23:38:35.387Z,55.60
2018-07-11T23:41:06.966Z,53.80
2018-07-11T23:43:35.007Z,54.20
2018-07-11T23:46:03.262Z,53.30
2018-07-11T23:48:31.240Z,53.00
2018-07-11T23:50:59.342Z,50.60
2018-07-11T23:53:27.341Z,50.00
2018-07-11T23:55:55.353Z,50.40
2018-07-11T23:58:23.338Z,49.00
